createdAt,value
2023-05-03T00:00:08.408Z,86.05
2023-05-03T00:03:10.151Z,85.83
2023-05-03T00:06:12.563Z,86.67
2023-05-03T00:09:14.394Z,87.81
2023-05-03T00:12:15.982Z,88.92
2023-05-03T00:15:17.429Z,89.72
2023-05-03T00:18:18.923Z,90.26
2023-05-03T00:21:20.354Z,90.26
2023-05-03T00:24:22.327Z,90.61
2023-05-03T00:27:26.542Z,91.63
2023-05-03T00:30:27.958Z,91.99
2023-05-03T00:33:29.366Z,90.70
2023-05-03T00:36:30.951Z,90.39
2023-05-03T00:39:32.622Z,90.20
2023-05-03T00:42:36.756Z,90.73
2023-05-03T00:45:38.303Z,90.64
2023-05-03T00:48:39.678Z,90.14
2023-05-03T00:51:42.177Z,90.41
2023-05-03T00:54:43.750Z,90.63
2023-05-03T00:57:45.175Z,91.76
2023-05-03T01:00:50.168Z,90.97
2023-05-03T01:03:52.178Z,91.99
2023-05-03T01:07:17.971Z,91.86
2023-05-03T01:10:44.148Z,92.82
2023-05-03T01:13:57.226Z,92.88
2023-05-03T01:17:05.389Z,93.13
2023-05-03T01:20:13.110Z,93.62
2023-05-03T01:23:32.858Z,93.87
2023-05-03T01:26:34.995Z,94.67
2023-05-03T01:29:36.473Z,94.74
2023-05-03T01:32:56.519Z,94.36
2023-05-03T01:36:04.835Z,95.50
2023-05-03T01:39:12.417Z,96.23
2023-05-03T01:42:15.391Z,96.26
2023-05-03T01:45:17.776Z,96.78
2023-05-03T01:48:19.686Z,95.30
2023-05-03T01:51:21.178Z,95.02
2023-05-03T01:54:23.849Z,95.47
2023-05-03T01:57:26.291Z,95.59
2023-05-03T02:00:27.760Z,96.29
2023-05-03T02:03:29.136Z,97.01
2023-05-03T02:06:30.727Z,96.17
2023-05-03T02:09:34.255Z,95.64
2023-05-03T02:12:35.643Z,96.83
2023-05-03T02:15:37.162Z,96.38
2023-05-03T02:18:38.571Z,96.46
2023-05-03T02:21:39.956Z,96.43
2023-05-03T02:24:41.349Z,95.23
2023-05-03T02:27:42.739Z,94.72
2023-05-03T02:30:44.217Z,93.84
2023-05-03T02:33:45.692Z,93.23
2023-05-03T02:36:47.103Z,94.56
2023-05-03T02:39:49.663Z,93.53
2023-05-03T02:42:52.156Z,94.36
2023-05-03T02:45:59.415Z,94.19
2023-05-03T02:49:01.170Z,95.71
2023-05-03T02:52:03.304Z,95.90
2023-05-03T02:55:05.908Z,97.30
2023-05-03T02:58:07.666Z,97.39
2023-05-03T03:01:09.153Z,98.52
2023-05-03T03:04:10.744Z,98.61
2023-05-03T03:07:12.159Z,96.79
2023-05-03T03:10:13.614Z,96.73
2023-05-03T03:13:15.303Z,98.28
2023-05-03T03:16:16.779Z,98.64
2023-05-03T03:19:18.274Z,97.74
2023-05-03T03:22:19.680Z,96.95
2023-05-03T03:25:21.952Z,96.25
2023-05-03T03:28:24.130Z,96.99
2023-05-03T03:31:26.187Z,97.69
2023-05-03T03:34:30.924Z,96.72
2023-05-03T03:37:32.671Z,97.83
2023-05-03T03:40:34.202Z,97.30
2023-05-03T03:43:35.708Z,96.33
2023-05-03T03:46:40.334Z,96.46
2023-05-03T03:49:43.112Z,96.54
2023-05-03T03:52:44.591Z,96.70
2023-05-03T03:55:47.176Z,96.84
2023-05-03T03:58:51.133Z,96.62
2023-05-03T04:01:52.581Z,97.71
2023-05-03T04:04:54.095Z,98.00
2023-05-03T04:07:56.694Z,97.76
2023-05-03T04:11:02.650Z,97.57
2023-05-03T04:14:09.169Z,97.03
2023-05-03T04:17:11.062Z,97.56
2023-05-03T04:20:13.677Z,97.66
2023-05-03T04:23:19.372Z,97.11
2023-05-03T04:26:31.104Z,99.18
2023-05-03T04:29:41.533Z,97.87
2023-05-03T04:32:43.247Z,96.66
2023-05-03T04:35:51.093Z,96.72
2023-05-03T04:38:52.834Z,96.52
2023-05-03T04:41:54.305Z,97.00
2023-05-03T04:44:56.352Z,97.26
2023-05-03T04:47:58.421Z,98.55
2023-05-03T04:51:01.330Z,99.34
2023-05-03T04:54:03.235Z,98.53
2023-05-03T04:57:04.842Z,97.86
2023-05-03T05:00:11.217Z,96.97
2023-05-03T05:03:16.502Z,97.72
2023-05-03T05:06:18.785Z,97.72
2023-05-03T05:09:24.715Z,98.13
2023-05-03T05:12:28.650Z,98.63
2023-05-03T05:15:30.439Z,98.49
2023-05-03T05:18:32.827Z,96.61
2023-05-03T05:21:36.881Z,97.46
2023-05-03T05:24:38.560Z,97.81
2023-05-03T05:27:41.390Z,97.82
2023-05-03T05:30:42.987Z,97.70
2023-05-03T05:33:44.517Z,96.99
2023-05-03T05:36:46.724Z,97.69
2023-05-03T05:39:49.472Z,96.51
2023-05-03T05:42:53.055Z,95.52
2023-05-03T05:45:56.219Z,94.31
2023-05-03T05:48:58.231Z,93.81
2023-05-03T05:51:59.991Z,93.46
2023-05-03T05:55:07.632Z,92.97
2023-05-03T05:58:11.822Z,92.01
2023-05-03T06:01:18.091Z,90.70
2023-05-03T06:04:19.652Z,90.24
2023-05-03T06:07:21.626Z,88.59
2023-05-03T06:10:23.053Z,88.78
2023-05-03T06:13:27.465Z,87.10
2023-05-03T06:16:30.563Z,84.94
2023-05-03T06:19:32.079Z,87.04
2023-05-03T06:22:33.642Z,84.41
2023-05-03T06:25:36.292Z,86.34
2023-05-03T06:28:38.448Z,85.94
2023-05-03T06:31:41.882Z,86.46
2023-05-03T06:34:44.807Z,87.57
2023-05-03T06:37:47.845Z,88.06
2023-05-03T06:40:50.350Z,88.88
2023-05-03T06:43:51.790Z,88.19
2023-05-03T06:46:53.277Z,87.04
2023-05-03T06:49:54.982Z,86.76
2023-05-03T06:52:56.463Z,87.03
2023-05-03T06:55:57.988Z,87.16
2023-05-03T06:59:00.330Z,87.20
2023-05-03T07:02:01.848Z,86.00
2023-05-03T07:05:03.418Z,85.15
2023-05-03T07:08:04.911Z,84.30
2023-05-03T07:11:06.447Z,84.12
2023-05-03T07:14:07.901Z,85.24
2023-05-03T07:17:09.931Z,84.89
2023-05-03T07:20:11.785Z,81.44
2023-05-03T07:23:13.207Z,81.40
2023-05-03T07:26:14.568Z,82.90
2023-05-03T07:29:15.944Z,80.90
2023-05-03T07:32:17.381Z,80.70
2023-05-03T07:35:19.367Z,81.50
2023-05-03T07:38:20.981Z,81.51
2023-05-03T07:41:22.377Z,79.31
2023-05-03T07:44:23.812Z,79.11
2023-05-03T07:47:26.348Z,79.23
2023-05-03T07:50:27.775Z,79.10
2023-05-03T07:53:29.173Z,76.97
2023-05-03T07:56:31.110Z,76.87
2023-05-03T07:59:32.581Z,74.67
2023-05-03T08:02:34.136Z,74.78
2023-05-03T08:05:36.524Z,72.89
2023-05-03T08:08:38.287Z,75.23
2023-05-03T08:11:41.623Z,75.81
2023-05-03T08:14:44.678Z,76.17
2023-05-03T08:17:46.281Z,75.64
2023-05-03T08:20:48.096Z,76.02
2023-05-03T08:23:49.755Z,74.42
2023-05-03T08:26:51.545Z,74.17
2023-05-03T08:29:53.103Z,73.25
2023-05-03T08:32:54.681Z,74.18
2023-05-03T08:35:56.160Z,74.23
2023-05-03T08:38:57.553Z,72.15
2023-05-03T08:42:00.230Z,71.74
2023-05-03T08:45:03.426Z,72.50
2023-05-03T08:48:06.731Z,72.89
2023-05-03T08:51:10.056Z,72.78
2023-05-03T08:54:11.616Z,72.53
2023-05-03T08:57:14.934Z,73.79
2023-05-03T09:00:19.106Z,73.36
2023-05-03T09:03:20.775Z,72.25
2023-05-03T09:06:26.940Z,71.85
2023-05-03T09:09:32.244Z,71.64
2023-05-03T09:12:40.941Z,70.51
2023-05-03T09:15:45.179Z,70.42
2023-05-03T09:18:56.725Z,70.46
2023-05-03T09:22:06.815Z,70.27
2023-05-03T09:25:09.252Z,68.40
2023-05-03T09:28:10.849Z,68.05
2023-05-03T09:31:13.467Z,68.45
2023-05-03T09:34:22.694Z,68.59
2023-05-03T09:37:36.767Z,67.28
2023-05-03T09:40:46.493Z,67.78
2023-05-03T09:43:50.291Z,67.31
2023-05-03T09:47:07.171Z,67.13
2023-05-03T09:50:08.971Z,65.23
2023-05-03T09:53:10.721Z,65.76
2023-05-03T09:56:15.165Z,66.60
2023-05-03T09:59:16.936Z,64.98
2023-05-03T10:02:18.438Z,64.47
2023-05-03T10:05:22.262Z,63.19
2023-05-03T10:08:34.817Z,62.55
2023-05-03T10:11:36.786Z,62.85
2023-05-03T10:14:42.545Z,62.77
2023-05-03T10:17:48.465Z,63.47
2023-05-03T10:20:55.228Z,61.65
2023-05-03T10:24:09.530Z,62.95
2023-05-03T10:27:11.993Z,58.65
2023-05-03T10:30:26.012Z,58.91
2023-05-03T10:33:36.955Z,58.46
2023-05-03T10:36:48.977Z,59.35
2023-05-03T10:39:52.976Z,58.79
2023-05-03T10:42:56.268Z,57.82
2023-05-03T10:45:58.686Z,57.80
2023-05-03T10:49:26.386Z,56.88
2023-05-03T10:52:48.129Z,56.58
2023-05-03T10:56:05.744Z,55.82
2023-05-03T10:59:07.181Z,55.18
2023-05-03T11:02:11.142Z,53.34
2023-05-03T11:05:15.133Z,53.36
2023-05-03T11:08:17.865Z,53.01
2023-05-03T11:11:19.385Z,55.04
2023-05-03T11:14:21.162Z,53.21
2023-05-03T11:17:23.501Z,52.97
2023-05-03T11:20:25.678Z,53.64
2023-05-03T11:23:29.908Z,50.53
2023-05-03T11:26:36.123Z,52.16
2023-05-03T11:29:38.619Z,50.07
2023-05-03T11:32:43.764Z,51.12
2023-05-03T11:35:45.238Z,49.03
2023-05-03T11:38:47.040Z,48.57
2023-05-03T11:42:08.734Z,48.72
2023-05-03T11:45:10.620Z,46.71
2023-05-03T11:48:13.286Z,45.32
2023-05-03T11:51:15.130Z,44.88
2023-05-03T11:54:25.428Z,44.49
2023-05-03T11:57:31.735Z,44.56
2023-05-03T12:00:33.438Z,43.13
2023-05-03T12:03:36.156Z,43.82
2023-05-03T12:06:38.862Z,43.90
2023-05-03T12:09:43.960Z,44.56
2023-05-03T12:12:53.505Z,43.45
2023-05-03T12:16:11.516Z,45.14
2023-05-03T12:19:24.290Z,44.71
2023-05-03T12:22:30.450Z,44.29
2023-05-03T12:25:33.946Z,43.83
2023-05-03T12:28:36.467Z,42.99
2023-05-03T12:31:39.498Z,44.37
2023-05-03T12:34:42.299Z,45.75
2023-05-03T12:37:44.255Z,40.67
2023-05-03T12:40:46.761Z,41.19
2023-05-03T12:43:49.993Z,41.69
2023-05-03T12:46:53.869Z,41.67
2023-05-03T12:49:59.376Z,42.23
2023-05-03T12:53:02.611Z,41.48
2023-05-03T12:59:23.253Z,39.60
2023-05-03T13:05:35.852Z,38.50
2023-05-03T13:08:38.004Z,37.76
2023-05-03T13:11:39.673Z,39.04
2023-05-03T13:14:42.462Z,38.87
2023-05-03T13:17:46.682Z,38.69
2023-05-03T13:20:50.325Z,39.00
2023-05-03T13:23:51.752Z,38.77
2023-05-03T13:26:53.125Z,39.27
2023-05-03T13:29:54.594Z,38.73
2023-05-03T13:32:56.046Z,40.55
2023-05-03T13:35:57.718Z,39.81
2023-05-03T13:39:00.100Z,38.62
2023-05-03T13:42:02.311Z,37.59
2023-05-03T13:45:04.620Z,38.46
2023-05-03T13:48:17.644Z,38.05
2023-05-03T13:51:20.683Z,37.78
2023-05-03T13:54:22.230Z,36.54
2023-05-03T13:57:23.635Z,36.12
2023-05-03T14:00:25.138Z,35.71
2023-05-03T14:03:26.599Z,36.02
2023-05-03T14:06:29.304Z,36.40
2023-05-03T14:09:31.856Z,35.67
2023-05-03T14:12:36.524Z,35.72
2023-05-03T14:15:39.488Z,35.81
2023-05-03T14:18:40.980Z,35.80
2023-05-03T14:21:43.073Z,35.67
2023-05-03T14:24:45.494Z,35.50
2023-05-03T14:27:47.224Z,35.01
2023-05-03T14:30:48.921Z,35.51
2023-05-03T14:33:50.288Z,35.00
2023-05-03T14:36:52.458Z,35.69
2023-05-03T14:39:53.895Z,35.25
2023-05-03T14:42:55.447Z,35.00
2023-05-03T14:45:56.837Z,34.75
2023-05-03T14:48:59.077Z,34.80
2023-05-03T14:52:00.759Z,35.35
2023-05-03T14:55:02.273Z,34.37
2023-05-03T14:58:03.761Z,35.46
2023-05-03T15:01:05.199Z,34.41
2023-05-03T15:04:10.422Z,34.13
2023-05-03T15:07:12.220Z,32.47
2023-05-03T15:10:13.662Z,32.99
2023-05-03T15:13:16.107Z,34.46
2023-05-03T15:16:18.192Z,34.18
2023-05-03T15:19:19.595Z,33.65
2023-05-03T15:22:21.044Z,32.93
2023-05-03T15:25:22.495Z,32.96
2023-05-03T15:28:23.911Z,32.31
2023-05-03T15:31:25.594Z,32.57
2023-05-03T15:34:27.152Z,31.71
2023-05-03T15:37:35.815Z,31.84
2023-05-03T15:40:37.677Z,31.17
2023-05-03T15:43:39.102Z,31.10
2023-05-03T15:46:42.674Z,31.19
2023-05-03T15:49:44.520Z,31.02
2023-05-03T15:52:48.861Z,31.98
2023-05-03T15:55:52.617Z,31.94
2023-05-03T15:58:54.048Z,31.20
2023-05-03T16:01:55.482Z,30.68
2023-05-03T16:04:56.946Z,30.49
2023-05-03T16:07:58.362Z,30.04
2023-05-03T16:11:00.030Z,30.92
2023-05-03T16:14:01.496Z,30.51
2023-05-03T16:17:03.153Z,30.84
2023-05-03T16:20:05.781Z,31.60
2023-05-03T16:23:09.716Z,31.03
2023-05-03T16:26:14.274Z,32.07
2023-05-03T16:29:17.286Z,32.88
2023-05-03T16:32:19.122Z,32.66
2023-05-03T16:35:20.656Z,31.47
2023-05-03T16:38:22.272Z,31.32
2023-05-03T16:41:24.224Z,32.70
2023-05-03T16:44:26.039Z,33.21
2023-05-03T16:47:27.480Z,34.00
2023-05-03T16:50:28.857Z,33.71
2023-05-03T16:53:31.229Z,34.12
2023-05-03T16:56:32.802Z,34.92
2023-05-03T16:59:34.290Z,34.57
2023-05-03T17:02:36.474Z,34.55
2023-05-03T17:05:38.079Z,34.48
2023-05-03T17:08:39.762Z,34.62
2023-05-03T17:11:41.315Z,34.95
2023-05-03T17:14:42.842Z,35.42
2023-05-03T17:17:44.285Z,36.13
2023-05-03T17:20:46.245Z,36.12
2023-05-03T17:23:47.787Z,36.72
2023-05-03T17:26:49.247Z,36.57
2023-05-03T17:29:51.039Z,37.17
2023-05-03T17:32:52.516Z,36.79
2023-05-03T17:35:55.582Z,37.01
2023-05-03T17:38:57.252Z,36.59
2023-05-03T17:41:58.761Z,36.94
2023-05-03T17:45:01.501Z,37.05
2023-05-03T17:48:03.609Z,37.04
2023-05-03T17:51:05.986Z,37.55
2023-05-03T17:54:07.480Z,37.96
2023-05-03T17:57:09.709Z,38.21
2023-05-03T18:00:15.385Z,37.43
2023-05-03T18:03:18.015Z,37.86
2023-05-03T18:06:19.664Z,37.76
2023-05-03T18:09:21.034Z,38.00
2023-05-03T18:12:22.631Z,38.31
2023-05-03T18:15:24.010Z,38.23
2023-05-03T18:18:25.547Z,38.48
2023-05-03T18:21:27.790Z,38.97
2023-05-03T18:24:29.238Z,38.88
2023-05-03T18:27:30.608Z,39.14
2023-05-03T18:30:32.519Z,39.17
2023-05-03T18:33:33.960Z,39.35
2023-05-03T18:36:35.509Z,39.44
2023-05-03T18:39:36.887Z,38.76
2023-05-03T18:42:38.273Z,39.50
2023-05-03T18:45:40.248Z,39.20
2023-05-03T18:48:41.638Z,39.36
2023-05-03T18:51:43.445Z,39.38
2023-05-03T18:54:44.821Z,39.51
2023-05-03T18:57:46.286Z,39.88
2023-05-03T19:00:47.869Z,40.12
2023-05-03T19:03:49.544Z,40.07
2023-05-03T19:06:50.972Z,40.20
2023-05-03T19:09:57.009Z,39.63
2023-05-03T19:12:58.475Z,40.17
2023-05-03T19:15:59.858Z,40.59
2023-05-03T19:19:02.129Z,40.43
2023-05-03T19:22:03.646Z,40.34
2023-05-03T19:25:05.844Z,40.05
2023-05-03T19:28:07.911Z,40.32
2023-05-03T19:31:09.789Z,40.88
2023-05-03T19:34:11.409Z,41.29
2023-05-03T19:37:13.037Z,41.25
2023-05-03T19:40:14.498Z,41.47
2023-05-03T19:43:15.877Z,41.75
2023-05-03T19:46:19.738Z,42.33
2023-05-03T19:49:21.952Z,42.12
2023-05-03T19:52:23.435Z,42.18
2023-05-03T19:55:25.636Z,42.18
2023-05-03T19:58:27.947Z,41.65
2023-05-03T20:01:29.472Z,41.10
2023-05-03T20:04:30.990Z,41.27
2023-05-03T20:07:32.525Z,41.02
2023-05-03T20:10:36.271Z,41.29
2023-05-03T20:13:37.679Z,41.13
2023-05-03T20:16:40.681Z,41.54
2023-05-03T20:19:42.309Z,41.43
2023-05-03T20:22:43.709Z,41.17
2023-05-03T20:25:45.114Z,41.52
2023-05-03T20:28:46.667Z,41.51
2023-05-03T20:31:51.047Z,41.69
2023-05-03T20:34:52.517Z,41.96
2023-05-03T20:37:53.886Z,42.28
2023-05-03T20:40:55.368Z,42.39
2023-05-03T20:43:56.766Z,42.61
2023-05-03T20:46:58.135Z,43.15
2023-05-03T20:49:59.857Z,43.30
2023-05-03T20:53:01.745Z,43.17
2023-05-03T20:56:06.242Z,43.34
2023-05-03T20:59:08.101Z,43.77
2023-05-03T21:02:09.544Z,43.46
2023-05-03T21:05:11.355Z,44.11
2023-05-03T21:08:12.852Z,43.88
2023-05-03T21:11:14.395Z,44.21
2023-05-03T21:14:18.381Z,44.22
2023-05-03T21:17:19.952Z,44.03
2023-05-03T21:20:22.234Z,44.35
2023-05-03T21:23:23.611Z,44.32
2023-05-03T21:26:25.135Z,44.09
2023-05-03T21:29:26.509Z,44.02
2023-05-03T21:32:27.926Z,43.67
2023-05-03T21:35:29.344Z,44.30
2023-05-03T21:38:30.883Z,44.27
2023-05-03T21:41:32.261Z,44.07
2023-05-03T21:44:33.656Z,44.24
2023-05-03T21:47:35.089Z,44.12
2023-05-03T21:50:39.909Z,44.31
2023-05-03T21:53:41.304Z,44.22
2023-05-03T21:56:42.706Z,43.81
2023-05-03T21:59:44.550Z,44.13
2023-05-03T22:02:46.412Z,43.87
2023-05-03T22:05:50.277Z,43.82
2023-05-03T22:08:51.649Z,43.72
2023-05-03T22:11:53.111Z,43.34
2023-05-03T22:14:54.573Z,43.32
2023-05-03T22:17:56.653Z,43.22
2023-05-03T22:20:58.187Z,43.42
2023-05-03T22:23:59.595Z,43.37
2023-05-03T22:27:00.998Z,43.43
2023-05-03T22:30:02.591Z,43.67
2023-05-03T22:33:04.298Z,43.46
2023-05-03T22:36:06.558Z,43.56
2023-05-03T22:39:08.042Z,43.70
2023-05-03T22:42:09.422Z,43.55
2023-05-03T22:45:11.270Z,43.81
2023-05-03T22:48:12.813Z,44.17
2023-05-03T22:51:14.218Z,43.70
2023-05-03T22:54:15.981Z,44.14
2023-05-03T22:57:17.362Z,44.07
2023-05-03T23:00:21.182Z,44.63
2023-05-03T23:03:22.980Z,44.42
2023-05-03T23:06:24.977Z,44.70
2023-05-03T23:09:26.946Z,45.10
2023-05-03T23:12:28.433Z,45.17
2023-05-03T23:15:30.147Z,45.24
2023-05-03T23:18:31.542Z,45.54
2023-05-03T23:21:33.762Z,45.49
2023-05-03T23:24:35.280Z,45.83
2023-05-03T23:27:36.751Z,46.33
2023-05-03T23:30:45.260Z,46.63
2023-05-03T23:33:47.117Z,46.66
2023-05-03T23:36:48.531Z,47.33
2023-05-03T23:39:50.365Z,47.46
2023-05-03T23:42:51.886Z,48.17
2023-05-03T23:45:53.303Z,47.94
2023-05-03T23:48:54.904Z,48.54
2023-05-03T23:51:56.298Z,48.92
2023-05-03T23:54:57.714Z,48.75
2023-05-03T23:57:59.085Z,48.81
